ARG1425 SPJC-SABE
Flight info
| Callsign | ARG1425 |
|---|---|
| Flight time | N/A |
| Altitude | 35000 |
| Route | SCO UL550 ROS UT672 MULTA UW24 SNT SNT9R |
| Aircraft | B738/M-SDE2E3FGHIRWXY/LB1 |
Departure
| Time | N/A |
|---|---|
| Airport | Jorge Chávez International Airport (SPJC) |
Arrival
| Time | 2026-04-30 20:01 |
|---|---|
| Airport | Aeroparque Jorge Newbery (SABE) |
| Time | Latitude | Longitude | Altitude | Speed | Heading |
|---|---|---|---|---|---|
| 2026-04-30 17:39 | -19.87671 | -71.17946 | 34982 ft | 519 kts | 143° |
| 2026-04-30 17:42 | -20.15720 | -70.93841 | 34993 ft | 518 kts | 143° |
| 2026-04-30 17:43 | -20.29703 | -70.81780 | 34984 ft | 519 kts | 142° |
| 2026-04-30 17:44 | -20.46531 | -70.67220 | 34996 ft | 520 kts | 142° |
| 2026-04-30 17:47 | -20.71790 | -70.45288 | 35001 ft | 521 kts | 142° |
| 2026-04-30 17:48 | -20.91459 | -70.28151 | 35003 ft | 521 kts | 142° |
| 2026-04-30 17:50 | -21.13883 | -70.08545 | 35019 ft | 519 kts | 142° |
| 2026-04-30 17:52 | -21.30636 | -69.93839 | 35050 ft | 518 kts | 143° |
| 2026-04-30 17:54 | -21.55708 | -69.71751 | 35109 ft | 519 kts | 143° |
| 2026-04-30 17:56 | -21.77997 | -69.52024 | 35164 ft | 519 kts | 143° |
| 2026-04-30 17:58 | -21.94689 | -69.37200 | 35208 ft | 519 kts | 143° |
| 2026-04-30 18:00 | -22.17018 | -69.17289 | 35263 ft | 521 kts | 143° |
| 2026-04-30 18:01 | -22.30965 | -69.04816 | 35283 ft | 523 kts | 143° |
| 2026-04-30 18:02 | -22.47786 | -68.89722 | 35301 ft | 524 kts | 143° |
| 2026-04-30 18:04 | -22.65133 | -68.75299 | 35285 ft | 524 kts | 146° |
| 2026-04-30 18:06 | -22.88365 | -68.56209 | 35271 ft | 526 kts | 146° |
| 2026-04-30 18:08 | -23.08709 | -68.39410 | 35249 ft | 524 kts | 146° |
| 2026-04-30 18:10 | -23.31823 | -68.20238 | 35208 ft | 521 kts | 146° |
| 2026-04-30 18:11 | -23.51937 | -68.03485 | 35203 ft | 521 kts | 146° |
| 2026-04-30 18:13 | -23.65358 | -67.92268 | 35190 ft | 521 kts | 146° |
| 2026-04-30 18:14 | -23.79756 | -67.80204 | 35168 ft | 522 kts | 146° |
| 2026-04-30 18:15 | -23.97016 | -67.65692 | 35148 ft | 520 kts | 146° |
| 2026-04-30 18:16 | -24.08485 | -67.56023 | 35130 ft | 520 kts | 146° |
| 2026-04-30 18:17 | -24.14201 | -67.51179 | 35118 ft | 520 kts | 145° |
| 2026-04-30 18:18 | -24.22733 | -67.43800 | 35102 ft | 521 kts | 145° |
| 2026-04-30 18:18 | -24.28377 | -67.38900 | 35100 ft | 520 kts | 145° |
| 2026-04-30 18:19 | -24.34048 | -67.33982 | 35095 ft | 520 kts | 145° |
| 2026-04-30 18:19 | -24.39730 | -67.29055 | 35079 ft | 520 kts | 145° |
| 2026-04-30 18:20 | -24.45414 | -67.24123 | 35058 ft | 522 kts | 145° |
| 2026-04-30 18:20 | -24.51113 | -67.19169 | 35046 ft | 521 kts | 145° |
| 2026-04-30 18:21 | -24.56798 | -67.14222 | 35034 ft | 521 kts | 144° |
| 2026-04-30 18:21 | -24.62479 | -67.09269 | 35034 ft | 521 kts | 144° |
| 2026-04-30 18:22 | -24.68153 | -67.04319 | 35024 ft | 521 kts | 144° |
| 2026-04-30 18:22 | -24.76620 | -66.96919 | 35023 ft | 520 kts | 144° |
| 2026-04-30 18:23 | -24.82286 | -66.91962 | 35022 ft | 520 kts | 144° |
| 2026-04-30 18:23 | -24.87965 | -66.86985 | 35023 ft | 521 kts | 144° |
| 2026-04-30 18:24 | -24.96458 | -66.79534 | 35010 ft | 520 kts | 144° |
| 2026-04-30 18:25 | -25.02109 | -66.74568 | 34995 ft | 520 kts | 144° |
| 2026-04-30 18:25 | -25.10588 | -66.67104 | 34999 ft | 520 kts | 144° |
| 2026-04-30 18:26 | -25.19037 | -66.59653 | 34978 ft | 519 kts | 144° |
| 2026-04-30 18:27 | -25.27488 | -66.52189 | 34979 ft | 518 kts | 144° |
| 2026-04-30 18:28 | -25.35914 | -66.44736 | 34986 ft | 516 kts | 144° |
| 2026-04-30 18:28 | -25.44320 | -66.37280 | 34970 ft | 517 kts | 144° |
| 2026-04-30 18:29 | -25.55500 | -66.27346 | 34963 ft | 518 kts | 144° |
| 2026-04-30 18:30 | -25.66733 | -66.17340 | 34963 ft | 518 kts | 144° |
| 2026-04-30 18:31 | -25.75153 | -66.09824 | 34964 ft | 518 kts | 143° |
| 2026-04-30 18:32 | -25.83564 | -66.02305 | 34951 ft | 517 kts | 144° |
| 2026-04-30 18:33 | -25.91919 | -65.94823 | 34940 ft | 516 kts | 143° |
| 2026-04-30 18:33 | -26.00287 | -65.87312 | 34932 ft | 515 kts | 143° |
| 2026-04-30 18:34 | -26.08636 | -65.79806 | 34924 ft | 515 kts | 143° |
| 2026-04-30 18:35 | -26.14210 | -65.74788 | 34921 ft | 515 kts | 143° |
| 2026-04-30 18:35 | -26.19782 | -65.69766 | 34903 ft | 515 kts | 143° |
| 2026-04-30 18:36 | -26.28143 | -65.62212 | 34901 ft | 515 kts | 143° |
| 2026-04-30 18:37 | -26.36448 | -65.54695 | 34881 ft | 515 kts | 143° |
| 2026-04-30 18:37 | -26.42010 | -65.49653 | 34885 ft | 515 kts | 143° |
| 2026-04-30 18:38 | -26.47585 | -65.44593 | 34876 ft | 516 kts | 143° |
| 2026-04-30 18:38 | -26.53158 | -65.39526 | 34878 ft | 517 kts | 143° |
| 2026-04-30 18:39 | -26.58747 | -65.34439 | 34867 ft | 518 kts | 143° |
| 2026-04-30 18:39 | -26.64329 | -65.29354 | 34864 ft | 519 kts | 143° |
| 2026-04-30 18:40 | -26.69930 | -65.24241 | 34860 ft | 519 kts | 143° |
| 2026-04-30 18:40 | -26.75523 | -65.19129 | 34862 ft | 519 kts | 143° |
| 2026-04-30 18:41 | -26.81075 | -65.14050 | 34860 ft | 519 kts | 143° |
| 2026-04-30 18:41 | -26.86792 | -65.09155 | 34851 ft | 515 kts | 152° |
| 2026-04-30 18:42 | -26.92974 | -65.05124 | 34859 ft | 513 kts | 154° |
| 2026-04-30 18:42 | -27.02278 | -64.99140 | 34861 ft | 514 kts | 153° |
| 2026-04-30 18:45 | -27.36096 | -64.76662 | 34877 ft | 514 kts | 153° |
| 2026-04-30 18:46 | -27.42244 | -64.72557 | 34881 ft | 514 kts | 153° |
| 2026-04-30 18:46 | -27.48395 | -64.68445 | 34880 ft | 513 kts | 153° |
| 2026-04-30 18:47 | -27.54526 | -64.64342 | 34879 ft | 513 kts | 153° |
| 2026-04-30 18:47 | -27.60618 | -64.60257 | 34878 ft | 512 kts | 153° |
| 2026-04-30 18:48 | -27.66748 | -64.56141 | 34881 ft | 512 kts | 153° |
| 2026-04-30 18:48 | -27.72857 | -64.52034 | 34876 ft | 510 kts | 153° |
| 2026-04-30 18:49 | -27.78954 | -64.47928 | 34883 ft | 510 kts | 153° |
| 2026-04-30 18:49 | -27.85046 | -64.43817 | 34879 ft | 510 kts | 153° |
| 2026-04-30 18:50 | -27.91137 | -64.39705 | 34879 ft | 509 kts | 153° |
| 2026-04-30 18:50 | -27.97222 | -64.35589 | 34878 ft | 509 kts | 153° |
| 2026-04-30 18:51 | -28.03299 | -64.31477 | 34881 ft | 509 kts | 153° |
| 2026-04-30 18:51 | -28.09381 | -64.27353 | 34875 ft | 509 kts | 153° |
| 2026-04-30 18:52 | -28.15417 | -64.23256 | 34881 ft | 510 kts | 153° |
| 2026-04-30 18:52 | -28.21506 | -64.19118 | 34879 ft | 510 kts | 153° |
| 2026-04-30 18:53 | -28.27593 | -64.14974 | 34879 ft | 510 kts | 153° |
| 2026-04-30 18:53 | -28.33676 | -64.10833 | 34881 ft | 510 kts | 153° |
| 2026-04-30 18:54 | -28.39773 | -64.06676 | 34881 ft | 510 kts | 153° |
| 2026-04-30 18:54 | -28.45860 | -64.02519 | 34871 ft | 511 kts | 153° |
| 2026-04-30 18:55 | -28.51908 | -63.98382 | 34871 ft | 511 kts | 153° |
| 2026-04-30 18:55 | -28.61033 | -63.92129 | 34872 ft | 511 kts | 153° |
| 2026-04-30 18:56 | -28.70150 | -63.85867 | 34886 ft | 510 kts | 153° |
| 2026-04-30 18:57 | -28.79270 | -63.79594 | 34899 ft | 510 kts | 153° |
| 2026-04-30 18:57 | -28.85329 | -63.75402 | 34898 ft | 510 kts | 152° |
| 2026-04-30 18:58 | -28.94426 | -63.69063 | 34901 ft | 510 kts | 152° |
| 2026-04-30 18:59 | -29.03524 | -63.62716 | 34898 ft | 511 kts | 152° |
| 2026-04-30 19:00 | -29.15612 | -63.54268 | 34904 ft | 510 kts | 152° |
| 2026-04-30 19:01 | -29.27710 | -63.45789 | 34908 ft | 509 kts | 152° |
| 2026-04-30 19:02 | -29.36769 | -63.39421 | 34907 ft | 509 kts | 152° |
| 2026-04-30 19:03 | -29.48800 | -63.30941 | 34907 ft | 508 kts | 152° |
| 2026-04-30 19:04 | -29.59816 | -63.23122 | 34913 ft | 508 kts | 152° |
| 2026-04-30 19:05 | -29.71827 | -63.14576 | 34916 ft | 508 kts | 152° |
| 2026-04-30 19:06 | -29.83838 | -63.06002 | 34915 ft | 508 kts | 152° |
| 2026-04-30 19:06 | -29.92834 | -62.99566 | 34917 ft | 508 kts | 152° |
| 2026-04-30 19:07 | -30.01844 | -62.93106 | 34916 ft | 508 kts | 152° |
| 2026-04-30 19:08 | -30.13803 | -62.84510 | 34925 ft | 507 kts | 152° |
| 2026-04-30 19:09 | -30.22790 | -62.78034 | 34924 ft | 507 kts | 152° |
| 2026-04-30 19:09 | -30.28782 | -62.73709 | 34924 ft | 507 kts | 152° |
| 2026-04-30 19:10 | -30.40747 | -62.65054 | 34925 ft | 506 kts | 152° |
| 2026-04-30 19:11 | -30.49674 | -62.58586 | 34904 ft | 506 kts | 152° |
| 2026-04-30 19:12 | -30.55642 | -62.54252 | 34895 ft | 506 kts | 152° |
| 2026-04-30 19:12 | -30.61613 | -62.49909 | 34900 ft | 506 kts | 152° |
| 2026-04-30 19:13 | -30.73526 | -62.41225 | 34907 ft | 505 kts | 152° |
| 2026-04-30 19:14 | -30.79485 | -62.36874 | 34909 ft | 506 kts | 152° |
| 2026-04-30 19:14 | -30.85455 | -62.32537 | 34907 ft | 506 kts | 152° |
| 2026-04-30 19:15 | -30.91389 | -62.28232 | 34910 ft | 506 kts | 152° |
| 2026-04-30 19:15 | -31.00347 | -62.21708 | 34913 ft | 506 kts | 152° |
| 2026-04-30 19:16 | -31.06306 | -62.17361 | 34918 ft | 505 kts | 152° |
| 2026-04-30 19:17 | -31.15255 | -62.10826 | 34917 ft | 506 kts | 152° |
| 2026-04-30 19:17 | -31.24199 | -62.04258 | 34916 ft | 507 kts | 152° |
| 2026-04-30 19:18 | -31.33095 | -61.97639 | 34924 ft | 507 kts | 152° |
| 2026-04-30 19:19 | -31.39050 | -61.93202 | 34922 ft | 508 kts | 152° |
| 2026-04-30 19:19 | -31.48003 | -61.86528 | 34919 ft | 508 kts | 152° |
| 2026-04-30 19:20 | -31.53969 | -61.82072 | 34924 ft | 508 kts | 152° |
| 2026-04-30 19:21 | -31.62913 | -61.75373 | 34924 ft | 508 kts | 152° |
| 2026-04-30 19:22 | -31.74792 | -61.66459 | 34933 ft | 508 kts | 152° |
| 2026-04-30 19:23 | -31.92645 | -61.53006 | 34927 ft | 508 kts | 152° |
| 2026-04-30 19:24 | -32.01525 | -61.46298 | 34930 ft | 507 kts | 152° |
| 2026-04-30 19:25 | -32.16363 | -61.35043 | 34933 ft | 506 kts | 152° |
| 2026-04-30 19:26 | -32.28210 | -61.26028 | 34934 ft | 506 kts | 152° |
| 2026-04-30 19:27 | -32.37076 | -61.19260 | 34938 ft | 506 kts | 152° |
| 2026-04-30 19:28 | -32.45932 | -61.12487 | 34932 ft | 505 kts | 152° |
| 2026-04-30 19:29 | -32.57712 | -61.03450 | 34932 ft | 506 kts | 152° |
| 2026-04-30 19:30 | -32.69509 | -60.94370 | 34932 ft | 505 kts | 152° |
| 2026-04-30 19:31 | -32.81300 | -60.85268 | 34942 ft | 505 kts | 152° |
| 2026-04-30 19:31 | -32.90149 | -60.78418 | 34935 ft | 505 kts | 152° |
| 2026-04-30 19:32 | -32.96148 | -60.74101 | 34936 ft | 503 kts | 155° |
| 2026-04-30 19:32 | -33.02224 | -60.69990 | 34935 ft | 502 kts | 156° |
| 2026-04-30 19:33 | -33.08284 | -60.65853 | 34933 ft | 504 kts | 153° |
| 2026-04-30 19:33 | -33.11125 | -60.63368 | 34947 ft | 510 kts | 142° |
| 2026-04-30 19:33 | -33.13653 | -60.60365 | 34939 ft | 514 kts | 132° |
| 2026-04-30 19:34 | -33.17950 | -60.53695 | 34610 ft | 498 kts | 130° |
| 2026-04-30 19:34 | -33.22143 | -60.47245 | 33670 ft | 493 kts | 131° |
| 2026-04-30 19:35 | -33.24258 | -60.44029 | 33209 ft | 491 kts | 131° |
| 2026-04-30 19:35 | -33.26362 | -60.40841 | 32953 ft | 489 kts | 131° |
| 2026-04-30 19:35 | -33.28466 | -60.37654 | 32960 ft | 489 kts | 131° |
| 2026-04-30 19:36 | -33.32678 | -60.31265 | 32941 ft | 489 kts | 131° |
| 2026-04-30 19:36 | -33.38987 | -60.21662 | 31622 ft | 493 kts | 131° |
| 2026-04-30 19:37 | -33.41130 | -60.18405 | 30621 ft | 503 kts | 131° |
| 2026-04-30 19:37 | -33.43311 | -60.15077 | 29615 ft | 512 kts | 131° |
| 2026-04-30 19:37 | -33.45505 | -60.11719 | 28831 ft | 513 kts | 131° |
| 2026-04-30 19:37 | -33.47697 | -60.08354 | 28244 ft | 509 kts | 131° |
| 2026-04-30 19:38 | -33.49863 | -60.05035 | 27710 ft | 504 kts | 131° |
| 2026-04-30 19:38 | -33.52017 | -60.01728 | 27152 ft | 500 kts | 131° |
| 2026-04-30 19:38 | -33.54153 | -59.98447 | 26586 ft | 497 kts | 131° |
| 2026-04-30 19:38 | -33.56241 | -59.95239 | 26040 ft | 493 kts | 131° |
| 2026-04-30 19:39 | -33.58373 | -59.91960 | 25457 ft | 490 kts | 131° |
| 2026-04-30 19:39 | -33.60435 | -59.88789 | 24921 ft | 486 kts | 131° |
| 2026-04-30 19:39 | -33.62507 | -59.85598 | 24381 ft | 482 kts | 131° |
| 2026-04-30 19:39 | -33.64560 | -59.82433 | 23851 ft | 479 kts | 131° |
| 2026-04-30 19:40 | -33.66592 | -59.79298 | 23335 ft | 475 kts | 131° |
| 2026-04-30 19:40 | -33.68610 | -59.76182 | 22851 ft | 470 kts | 131° |
| 2026-04-30 19:40 | -33.70605 | -59.73100 | 22377 ft | 465 kts | 130° |
| 2026-04-30 19:40 | -33.72583 | -59.70041 | 21900 ft | 460 kts | 130° |
| 2026-04-30 19:41 | -33.74539 | -59.67015 | 21420 ft | 456 kts | 130° |
| 2026-04-30 19:41 | -33.76475 | -59.64015 | 20970 ft | 451 kts | 130° |
| 2026-04-30 19:41 | -33.78387 | -59.61052 | 20491 ft | 447 kts | 130° |
| 2026-04-30 19:41 | -33.80283 | -59.58109 | 20035 ft | 443 kts | 130° |
| 2026-04-30 19:42 | -33.82158 | -59.55196 | 19600 ft | 438 kts | 130° |
| 2026-04-30 19:42 | -33.84015 | -59.52310 | 19136 ft | 434 kts | 130° |
| 2026-04-30 19:42 | -33.85852 | -59.49453 | 18645 ft | 430 kts | 130° |
| 2026-04-30 19:42 | -33.87677 | -59.46615 | 18204 ft | 426 kts | 130° |
| 2026-04-30 19:43 | -33.89476 | -59.43812 | 17740 ft | 422 kts | 130° |
| 2026-04-30 19:43 | -33.91262 | -59.41028 | 17252 ft | 419 kts | 130° |
| 2026-04-30 19:43 | -33.93017 | -59.38291 | 16793 ft | 415 kts | 130° |
| 2026-04-30 19:44 | -33.96509 | -59.32834 | 15885 ft | 407 kts | 129° |
| 2026-04-30 19:44 | -33.98231 | -59.30141 | 15423 ft | 405 kts | 129° |
| 2026-04-30 19:44 | -33.99942 | -59.27464 | 14954 ft | 402 kts | 129° |
| 2026-04-30 19:44 | -34.01641 | -59.24805 | 14502 ft | 398 kts | 129° |
| 2026-04-30 19:45 | -34.03320 | -59.22172 | 14058 ft | 394 kts | 129° |
| 2026-04-30 19:45 | -34.04969 | -59.19587 | 13915 ft | 383 kts | 129° |
| 2026-04-30 19:45 | -34.06566 | -59.17080 | 13818 ft | 370 kts | 129° |
| 2026-04-30 19:45 | -34.08108 | -59.14657 | 13743 ft | 358 kts | 129° |
| 2026-04-30 19:46 | -34.09601 | -59.12310 | 13667 ft | 346 kts | 129° |
| 2026-04-30 19:46 | -34.11031 | -59.10059 | 13533 ft | 329 kts | 129° |
| 2026-04-30 19:46 | -34.12407 | -59.07896 | 13214 ft | 322 kts | 129° |
| 2026-04-30 19:46 | -34.13763 | -59.05763 | 12860 ft | 320 kts | 129° |
| 2026-04-30 19:47 | -34.15115 | -59.03635 | 12553 ft | 319 kts | 129° |
| 2026-04-30 19:47 | -34.16005 | -59.02233 | 12386 ft | 316 kts | 129° |
| 2026-04-30 19:47 | -34.17782 | -58.99432 | 12032 ft | 313 kts | 129° |
| 2026-04-30 19:47 | -34.19105 | -58.97344 | 11744 ft | 311 kts | 129° |
| 2026-04-30 19:48 | -34.20418 | -58.95272 | 11438 ft | 310 kts | 129° |
| 2026-04-30 19:48 | -34.21722 | -58.93211 | 11184 ft | 307 kts | 128° |
| 2026-04-30 19:48 | -34.23017 | -58.91163 | 10916 ft | 305 kts | 128° |
| 2026-04-30 19:48 | -34.24284 | -58.89159 | 10650 ft | 303 kts | 128° |
| 2026-04-30 19:49 | -34.25578 | -58.87112 | 10362 ft | 302 kts | 128° |
| 2026-04-30 19:49 | -34.28106 | -58.83107 | 9822 ft | 298 kts | 128° |
| 2026-04-30 19:49 | -34.29356 | -58.81126 | 9546 ft | 296 kts | 128° |
| 2026-04-30 19:50 | -34.30601 | -58.79152 | 9291 ft | 294 kts | 128° |
| 2026-04-30 19:50 | -34.31831 | -58.77199 | 9035 ft | 291 kts | 127° |
| 2026-04-30 19:50 | -34.33087 | -58.75319 | 8749 ft | 290 kts | 133° |
| 2026-04-30 19:50 | -34.34483 | -58.73555 | 8313 ft | 292 kts | 135° |
| 2026-04-30 19:51 | -34.35923 | -58.71815 | 7775 ft | 293 kts | 135° |
| 2026-04-30 19:51 | -34.37365 | -58.70070 | 7267 ft | 293 kts | 135° |
| 2026-04-30 19:51 | -34.38774 | -58.68346 | 7090 ft | 281 kts | 135° |
| 2026-04-30 19:51 | -34.40107 | -58.66697 | 6981 ft | 267 kts | 134° |
| 2026-04-30 19:52 | -34.41387 | -58.65108 | 6693 ft | 262 kts | 134° |
| 2026-04-30 19:52 | -34.42235 | -58.64032 | 6420 ft | 261 kts | 130° |
| 2026-04-30 19:52 | -34.43100 | -58.62132 | 6023 ft | 258 kts | 101° |
| 2026-04-30 19:52 | -34.43083 | -58.60017 | 5752 ft | 251 kts | 70° |
| 2026-04-30 19:53 | -34.42233 | -58.58267 | 5517 ft | 242 kts | 40° |
| 2026-04-30 19:53 | -34.40800 | -58.57305 | 5247 ft | 235 kts | 9° |
| 2026-04-30 19:53 | -34.39210 | -58.57404 | 4985 ft | 230 kts | 338° |
| 2026-04-30 19:53 | -34.37863 | -58.58409 | 4752 ft | 227 kts | 321° |
| 2026-04-30 19:54 | -34.36774 | -58.59790 | 4470 ft | 227 kts | 309° |
| 2026-04-30 19:54 | -34.35797 | -58.61280 | 4228 ft | 224 kts | 309° |
| 2026-04-30 19:54 | -34.34832 | -58.62753 | 3821 ft | 224 kts | 309° |
| 2026-04-30 19:54 | -34.33891 | -58.64272 | 3453 ft | 224 kts | 298° |
| 2026-04-30 19:55 | -34.33659 | -58.66057 | 3449 ft | 220 kts | 258° |
| 2026-04-30 19:55 | -34.34379 | -58.67700 | 3498 ft | 226 kts | 232° |
| 2026-04-30 19:55 | -34.35628 | -58.68887 | 3478 ft | 232 kts | 206° |
| 2026-04-30 19:55 | -34.37191 | -58.69268 | 3468 ft | 231 kts | 176° |
| 2026-04-30 19:56 | -34.38711 | -58.68687 | 3473 ft | 230 kts | 147° |
| 2026-04-30 19:56 | -34.39904 | -58.67460 | 3468 ft | 225 kts | 132° |
| 2026-04-30 19:56 | -34.40925 | -58.66106 | 3466 ft | 211 kts | 131° |
| 2026-04-30 19:56 | -34.41893 | -58.64802 | 3398 ft | 206 kts | 131° |
| 2026-04-30 19:57 | -34.42839 | -58.63537 | 3298 ft | 200 kts | 131° |
| 2026-04-30 19:57 | -34.43767 | -58.62309 | 3225 ft | 196 kts | 131° |
| 2026-04-30 19:57 | -34.44686 | -58.61090 | 3155 ft | 197 kts | 131° |
| 2026-04-30 19:57 | -34.45630 | -58.59848 | 3074 ft | 204 kts | 131° |
| 2026-04-30 19:58 | -34.46513 | -58.58514 | 2967 ft | 199 kts | 123° |
| 2026-04-30 19:58 | -34.47266 | -58.57145 | 2970 ft | 194 kts | 122° |
| 2026-04-30 19:58 | -34.48054 | -58.55743 | 2586 ft | 206 kts | 124° |
| 2026-04-30 19:58 | -34.48833 | -58.54355 | 2311 ft | 196 kts | 125° |
| 2026-04-30 19:59 | -34.49568 | -58.53028 | 2068 ft | 185 kts | 125° |
| 2026-04-30 19:59 | -34.50254 | -58.51793 | 1826 ft | 170 kts | 121° |
| 2026-04-30 19:59 | -34.51490 | -58.49561 | 1401 ft | 154 kts | 121° |
| 2026-04-30 20:00 | -34.52085 | -58.48488 | 1206 ft | 154 kts | 123° |
| 2026-04-30 20:00 | -34.52684 | -58.47407 | 1000 ft | 156 kts | 123° |
| 2026-04-30 20:00 | -34.53292 | -58.46304 | 813 ft | 157 kts | 122° |
| 2026-04-30 20:00 | -34.53891 | -58.45187 | 562 ft | 159 kts | 123° |
| 2026-04-30 20:01 | -34.55124 | -58.43017 | 133 ft | 156 kts | 123° |
| 2026-04-30 20:01 | -34.55712 | -58.41955 | 25 ft | 132 kts | 124° |
| 2026-04-30 20:01 | -34.56003 | -58.41433 | 25 ft | 27 kts | 124° |
| 2026-04-30 20:02 | -34.56186 | -58.41102 | 27 ft | 11 kts | 122° |
| 2026-04-30 20:02 | -34.56176 | -58.41017 | 26 ft | 11 kts | 61° |
| 2026-04-30 20:03 | -34.56124 | -58.40976 | 26 ft | 5 kts | 321° |
| 2026-04-30 20:03 | -34.56102 | -58.41005 | 26 ft | 5 kts | 307° |
| 2026-04-30 20:03 | -34.56083 | -58.41036 | 26 ft | 5 kts | 307° |
| 2026-04-30 20:03 | -34.56065 | -58.41066 | 30 ft | 4 kts | 307° |
| 2026-04-30 20:04 | -34.56046 | -58.41096 | 27 ft | 4 kts | 307° |
| 2026-04-30 20:04 | -34.56024 | -58.41132 | 26 ft | 7 kts | 307° |
| 2026-04-30 20:04 | -34.55988 | -58.41192 | 28 ft | 11 kts | 307° |
| 2026-04-30 20:05 | -34.55869 | -58.41278 | 29 ft | 11 kts | 23° |
| 2026-04-30 20:05 | -34.55815 | -58.41317 | 26 ft | 10 kts | 303° |
| 2026-04-30 20:05 | -34.55747 | -58.41451 | 31 ft | 9 kts | 299° |
| 2026-04-30 20:06 | -34.55722 | -58.41490 | 26 ft | 5 kts | 335° |
| 2026-04-30 20:06 | -34.55701 | -58.41488 | 26 ft | 2 kts | 14° |
| 2026-04-30 20:06 | -34.55688 | -58.41484 | 26 ft | 0 kts | 14° |